sensor_id;sensor_type;location;lat;lon;timestamp;temperature;humidity
36924;DHT22;22841;50.252;18.688;2023-06-24T00:01:02;19.50;99.90
36924;DHT22;22841;50.252;18.688;2023-06-24T00:03:28;19.50;99.90
36924;DHT22;22841;50.252;18.688;2023-06-24T00:05:54;19.50;99.90
36924;DHT22;22841;50.252;18.688;2023-06-24T00:08:22;19.50;99.90
36924;DHT22;22841;50.252;18.688;2023-06-24T00:10:49;19.40;99.90
36924;DHT22;22841;50.252;18.688;2023-06-24T00:13:16;19.50;99.90
36924;DHT22;22841;50.252;18.688;2023-06-24T00:15:42;19.50;99.90
36924;DHT22;22841;50.252;18.688;2023-06-24T00:18:12;19.50;99.90
36924;DHT22;22841;50.252;18.688;2023-06-24T00:20:38;19.50;99.90
36924;DHT22;22841;50.252;18.688;2023-06-24T00:23:05;19.50;99.90
36924;DHT22;22841;50.252;18.688;2023-06-24T00:25:31;19.50;99.90
36924;DHT22;22841;50.252;18.688;2023-06-24T00:27:58;19.40;99.90
36924;DHT22;22841;50.252;18.688;2023-06-24T00:30:25;19.30;99.90
36924;DHT22;22841;50.252;18.688;2023-06-24T00:32:51;19.30;99.90
36924;DHT22;22841;50.252;18.688;2023-06-24T00:35:18;19.40;99.90
36924;DHT22;22841;50.252;18.688;2023-06-24T00:37:44;19.30;99.90
36924;DHT22;22841;50.252;18.688;2023-06-24T00:40:12;19.30;99.90
36924;DHT22;22841;50.252;18.688;2023-06-24T00:42:42;19.30;99.90
36924;DHT22;22841;50.252;18.688;2023-06-24T00:45:09;19.30;99.90
36924;DHT22;22841;50.252;18.688;2023-06-24T00:47:35;19.30;99.90
36924;DHT22;22841;50.252;18.688;2023-06-24T00:50:02;19.40;99.90
36924;DHT22;22841;50.252;18.688;2023-06-24T00:52:30;19.30;99.90
36924;DHT22;22841;50.252;18.688;2023-06-24T00:54:56;19.30;99.90
36924;DHT22;22841;50.252;18.688;2023-06-24T00:57:22;19.30;99.90
36924;DHT22;22841;50.252;18.688;2023-06-24T00:59:51;19.20;99.90
36924;DHT22;22841;50.252;18.688;2023-06-24T01:02:21;19.20;99.90
36924;DHT22;22841;50.252;18.688;2023-06-24T01:04:48;19.10;99.90
36924;DHT22;22841;50.252;18.688;2023-06-24T01:07:16;19.10;99.90
36924;DHT22;22841;50.252;18.688;2023-06-24T01:09:42;19.10;99.90
36924;DHT22;22841;50.252;18.688;2023-06-24T01:12:08;19.10;99.90
36924;DHT22;22841;50.252;18.688;2023-06-24T01:14:35;19.10;99.90
36924;DHT22;22841;50.252;18.688;2023-06-24T01:17:21;19.10;99.90
36924;DHT22;22841;50.252;18.688;2023-06-24T01:28:12;19.00;99.90
36924;DHT22;22841;50.252;18.688;2023-06-24T01:33:54;19.00;99.90
36924;DHT22;22841;50.252;18.688;2023-06-24T01:36:28;19.00;99.90
36924;DHT22;22841;50.252;18.688;2023-06-24T01:39:02;19.00;99.90
36924;DHT22;22841;50.252;18.688;2023-06-24T01:41:34;19.00;99.90
36924;DHT22;22841;50.252;18.688;2023-06-24T01:44:02;19.00;99.90
36924;DHT22;22841;50.252;18.688;2023-06-24T01:46:30;19.00;99.90
36924;DHT22;22841;50.252;18.688;2023-06-24T01:49:01;19.00;99.90
36924;DHT22;22841;50.252;18.688;2023-06-24T01:51:30;18.90;99.90
36924;DHT22;22841;50.252;18.688;2023-06-24T01:54:01;19.00;99.90
36924;DHT22;22841;50.252;18.688;2023-06-24T01:56:28;18.90;99.90
36924;DHT22;22841;50.252;18.688;2023-06-24T01:58:57;18.90;99.90
36924;DHT22;22841;50.252;18.688;2023-06-24T02:01:25;18.90;99.90
36924;DHT22;22841;50.252;18.688;2023-06-24T02:03:52;18.90;99.90
36924;DHT22;22841;50.252;18.688;2023-06-24T02:06:19;18.90;99.90
36924;DHT22;22841;50.252;18.688;2023-06-24T02:08:48;18.90;99.90
36924;DHT22;22841;50.252;18.688;2023-06-24T02:11:17;18.90;99.90
36924;DHT22;22841;50.252;18.688;2023-06-24T02:13:44;18.80;99.90
36924;DHT22;22841;50.252;18.688;2023-06-24T02:16:10;18.80;99.90
36924;DHT22;22841;50.252;18.688;2023-06-24T02:18:39;18.80;99.90
36924;DHT22;22841;50.252;18.688;2023-06-24T02:21:09;18.90;99.90
36924;DHT22;22841;50.252;18.688;2023-06-24T02:23:37;18.90;99.90
36924;DHT22;22841;50.252;18.688;2023-06-24T02:26:04;18.90;99.90
36924;DHT22;22841;50.252;18.688;2023-06-24T02:28:33;18.90;99.90
36924;DHT22;22841;50.252;18.688;2023-06-24T02:31:00;18.80;99.90
36924;DHT22;22841;50.252;18.688;2023-06-24T02:33:26;18.70;99.90
36924;DHT22;22841;50.252;18.688;2023-06-24T02:35:53;18.70;99.90
36924;DHT22;22841;50.252;18.688;2023-06-24T02:38:19;18.70;99.90
36924;DHT22;22841;50.252;18.688;2023-06-24T02:40:45;18.70;99.90
36924;DHT22;22841;50.252;18.688;2023-06-24T02:43:12;18.80;99.90
36924;DHT22;22841;50.252;18.688;2023-06-24T02:45:39;18.70;99.90
36924;DHT22;22841;50.252;18.688;2023-06-24T02:48:07;18.70;99.90
36924;DHT22;22841;50.252;18.688;2023-06-24T02:50:35;18.70;99.90
36924;DHT22;22841;50.252;18.688;2023-06-24T02:53:03;18.70;99.90
36924;DHT22;22841;50.252;18.688;2023-06-24T02:55:30;18.70;99.90
36924;DHT22;22841;50.252;18.688;2023-06-24T02:57:57;18.60;99.90
36924;DHT22;22841;50.252;18.688;2023-06-24T03:00:24;18.70;99.90
36924;DHT22;22841;50.252;18.688;2023-06-24T03:02:50;18.70;99.90
36924;DHT22;22841;50.252;18.688;2023-06-24T03:05:17;18.70;99.90
36924;DHT22;22841;50.252;18.688;2023-06-24T03:07:45;18.70;99.90
36924;DHT22;22841;50.252;18.688;2023-06-24T03:10:11;18.60;99.90
36924;DHT22;22841;50.252;18.688;2023-06-24T03:12:39;18.70;99.90
36924;DHT22;22841;50.252;18.688;2023-06-24T03:15:05;18.60;99.90
36924;DHT22;22841;50.252;18.688;2023-06-24T03:17:31;18.70;99.90
36924;DHT22;22841;50.252;18.688;2023-06-24T03:19:58;18.60;99.90
36924;DHT22;22841;50.252;18.688;2023-06-24T03:22:24;18.60;99.90
36924;DHT22;22841;50.252;18.688;2023-06-24T03:24:50;18.60;99.90
36924;DHT22;22841;50.252;18.688;2023-06-24T03:27:18;18.60;99.90
36924;DHT22;22841;50.252;18.688;2023-06-24T03:29:45;18.60;99.90
36924;DHT22;22841;50.252;18.688;2023-06-24T03:32:11;18.50;99.90
36924;DHT22;22841;50.252;18.688;2023-06-24T03:34:37;18.60;99.90
36924;DHT22;22841;50.252;18.688;2023-06-24T03:37:03;18.60;99.90
36924;DHT22;22841;50.252;18.688;2023-06-24T03:39:30;18.60;99.90
36924;DHT22;22841;50.252;18.688;2023-06-24T03:41:56;18.60;99.90
36924;DHT22;22841;50.252;18.688;2023-06-24T03:44:22;18.50;99.90
36924;DHT22;22841;50.252;18.688;2023-06-24T03:46:48;18.60;99.90
36924;DHT22;22841;50.252;18.688;2023-06-24T03:49:14;18.60;99.90
36924;DHT22;22841;50.252;18.688;2023-06-24T03:51:40;18.60;99.90
36924;DHT22;22841;50.252;18.688;2023-06-24T03:54:06;18.50;99.90
36924;DHT22;22841;50.252;18.688;2023-06-24T03:56:32;18.60;99.90
36924;DHT22;22841;50.252;18.688;2023-06-24T03:58:59;18.70;99.90
36924;DHT22;22841;50.252;18.688;2023-06-24T04:01:25;18.70;99.90
36924;DHT22;22841;50.252;18.688;2023-06-24T04:03:51;18.70;99.90
36924;DHT22;22841;50.252;18.688;2023-06-24T04:06:17;18.80;99.90
36924;DHT22;22841;50.252;18.688;2023-06-24T04:08:43;18.70;99.90
36924;DHT22;22841;50.252;18.688;2023-06-24T04:11:09;18.70;99.90
36924;DHT22;22841;50.252;18.688;2023-06-24T04:13:36;18.70;99.90
36924;DHT22;22841;50.252;18.688;2023-06-24T04:16:02;18.70;99.90
36924;DHT22;22841;50.252;18.688;2023-06-24T04:18:28;18.70;99.90
36924;DHT22;22841;50.252;18.688;2023-06-24T04:20:54;18.70;99.90
36924;DHT22;22841;50.252;18.688;2023-06-24T04:23:20;18.70;99.90
36924;DHT22;22841;50.252;18.688;2023-06-24T04:25:46;18.60;99.90
36924;DHT22;22841;50.252;18.688;2023-06-24T04:28:13;18.70;99.90
36924;DHT22;22841;50.252;18.688;2023-06-24T04:30:39;18.70;99.90
36924;DHT22;22841;50.252;18.688;2023-06-24T04:33:05;18.70;99.90
36924;DHT22;22841;50.252;18.688;2023-06-24T04:35:31;18.60;99.90
36924;DHT22;22841;50.252;18.688;2023-06-24T04:37:57;18.60;99.90
36924;DHT22;22841;50.252;18.688;2023-06-24T04:40:24;18.60;99.90
36924;DHT22;22841;50.252;18.688;2023-06-24T04:42:50;18.60;99.90
36924;DHT22;22841;50.252;18.688;2023-06-24T04:45:17;18.50;99.90
36924;DHT22;22841;50.252;18.688;2023-06-24T04:47:43;18.50;99.90
36924;DHT22;22841;50.252;18.688;2023-06-24T04:50:10;18.50;99.90
36924;DHT22;22841;50.252;18.688;2023-06-24T04:52:36;18.40;99.90
36924;DHT22;22841;50.252;18.688;2023-06-24T04:55:03;18.40;99.90
36924;DHT22;22841;50.252;18.688;2023-06-24T04:57:30;18.40;99.90
36924;DHT22;22841;50.252;18.688;2023-06-24T04:59:57;18.40;99.90
36924;DHT22;22841;50.252;18.688;2023-06-24T05:02:24;18.40;99.90
36924;DHT22;22841;50.252;18.688;2023-06-24T05:04:51;18.40;99.90
36924;DHT22;22841;50.252;18.688;2023-06-24T05:07:18;18.40;99.90
36924;DHT22;22841;50.252;18.688;2023-06-24T05:09:48;18.30;99.90
36924;DHT22;22841;50.252;18.688;2023-06-24T05:12:14;18.30;99.90
36924;DHT22;22841;50.252;18.688;2023-06-24T05:14:41;18.30;99.90
36924;DHT22;22841;50.252;18.688;2023-06-24T05:17:07;18.30;99.90
36924;DHT22;22841;50.252;18.688;2023-06-24T05:19:33;18.30;99.90
36924;DHT22;22841;50.252;18.688;2023-06-24T05:21:59;18.30;99.90
36924;DHT22;22841;50.252;18.688;2023-06-24T05:24:25;18.30;99.90
36924;DHT22;22841;50.252;18.688;2023-06-24T05:26:52;18.30;99.90
36924;DHT22;22841;50.252;18.688;2023-06-24T05:29:18;18.20;99.90
36924;DHT22;22841;50.252;18.688;2023-06-24T05:31:44;18.30;99.90
36924;DHT22;22841;50.252;18.688;2023-06-24T05:34:10;18.30;99.90
36924;DHT22;22841;50.252;18.688;2023-06-24T05:36:36;18.30;99.90
36924;DHT22;22841;50.252;18.688;2023-06-24T05:39:02;18.30;99.90
36924;DHT22;22841;50.252;18.688;2023-06-24T05:41:28;18.30;99.90
36924;DHT22;22841;50.252;18.688;2023-06-24T05:44:03;18.40;99.90
36924;DHT22;22841;50.252;18.688;2023-06-24T05:46:29;18.50;99.90
36924;DHT22;22841;50.252;18.688;2023-06-24T05:48:55;18.40;99.90
36924;DHT22;22841;50.252;18.688;2023-06-24T05:51:21;18.40;99.90
36924;DHT22;22841;50.252;18.688;2023-06-24T05:53:47;18.50;99.90
36924;DHT22;22841;50.252;18.688;2023-06-24T05:56:13;18.50;99.90
36924;DHT22;22841;50.252;18.688;2023-06-24T05:58:39;18.40;99.90
36924;DHT22;22841;50.252;18.688;2023-06-24T06:01:10;18.50;99.90
36924;DHT22;22841;50.252;18.688;2023-06-24T06:03:36;18.50;99.90
36924;DHT22;22841;50.252;18.688;2023-06-24T06:06:02;18.50;99.90
36924;DHT22;22841;50.252;18.688;2023-06-24T06:08:28;18.40;99.90
36924;DHT22;22841;50.252;18.688;2023-06-24T06:10:55;18.50;99.90
36924;DHT22;22841;50.252;18.688;2023-06-24T06:13:21;18.50;99.90
36924;DHT22;22841;50.252;18.688;2023-06-24T06:15:47;18.40;99.90
36924;DHT22;22841;50.252;18.688;2023-06-24T06:18:13;18.40;99.90
36924;DHT22;22841;50.252;18.688;2023-06-24T06:20:40;18.40;99.90
36924;DHT22;22841;50.252;18.688;2023-06-24T06:23:06;18.40;99.90
36924;DHT22;22841;50.252;18.688;2023-06-24T06:25:33;18.50;99.90
36924;DHT22;22841;50.252;18.688;2023-06-24T06:27:59;18.50;99.90
36924;DHT22;22841;50.252;18.688;2023-06-24T06:30:25;18.50;99.90
36924;DHT22;22841;50.252;18.688;2023-06-24T06:32:51;18.60;99.90
36924;DHT22;22841;50.252;18.688;2023-06-24T06:35:17;18.60;99.90
36924;DHT22;22841;50.252;18.688;2023-06-24T06:37:43;18.60;99.90
36924;DHT22;22841;50.252;18.688;2023-06-24T06:40:10;18.70;99.90
36924;DHT22;22841;50.252;18.688;2023-06-24T06:42:36;18.70;99.90
36924;DHT22;22841;50.252;18.688;2023-06-24T06:45:03;18.70;99.90
36924;DHT22;22841;50.252;18.688;2023-06-24T06:47:29;18.80;99.90
36924;DHT22;22841;50.252;18.688;2023-06-24T06:49:55;18.70;99.90
36924;DHT22;22841;50.252;18.688;2023-06-24T06:52:21;18.70;99.90
36924;DHT22;22841;50.252;18.688;2023-06-24T06:54:47;18.70;99.90
36924;DHT22;22841;50.252;18.688;2023-06-24T06:57:13;18.70;99.90
36924;DHT22;22841;50.252;18.688;2023-06-24T06:59:39;18.70;99.90
36924;DHT22;22841;50.252;18.688;2023-06-24T07:02:06;18.60;99.90
36924;DHT22;22841;50.252;18.688;2023-06-24T07:04:32;18.70;99.90
36924;DHT22;22841;50.252;18.688;2023-06-24T07:06:58;18.70;99.90
36924;DHT22;22841;50.252;18.688;2023-06-24T07:09:24;18.70;99.90
36924;DHT22;22841;50.252;18.688;2023-06-24T07:11:50;18.80;99.90
36924;DHT22;22841;50.252;18.688;2023-06-24T07:14:17;18.80;99.90
36924;DHT22;22841;50.252;18.688;2023-06-24T07:16:43;18.80;99.90
36924;DHT22;22841;50.252;18.688;2023-06-24T07:19:09;18.80;99.90
36924;DHT22;22841;50.252;18.688;2023-06-24T07:21:35;18.90;99.90
36924;DHT22;22841;50.252;18.688;2023-06-24T07:24:01;18.90;99.90
36924;DHT22;22841;50.252;18.688;2023-06-24T07:26:27;18.90;99.90
36924;DHT22;22841;50.252;18.688;2023-06-24T07:28:56;18.80;99.90
36924;DHT22;22841;50.252;18.688;2023-06-24T07:31:24;18.80;99.90
36924;DHT22;22841;50.252;18.688;2023-06-24T07:33:50;18.80;99.90
36924;DHT22;22841;50.252;18.688;2023-06-24T07:36:16;18.80;99.90
36924;DHT22;22841;50.252;18.688;2023-06-24T07:38:42;18.90;99.90
36924;DHT22;22841;50.252;18.688;2023-06-24T07:41:08;18.80;99.90
36924;DHT22;22841;50.252;18.688;2023-06-24T07:43:34;18.80;99.90
36924;DHT22;22841;50.252;18.688;2023-06-24T07:46:01;18.80;99.90
36924;DHT22;22841;50.252;18.688;2023-06-24T07:48:28;18.80;99.90
36924;DHT22;22841;50.252;18.688;2023-06-24T07:50:54;18.80;99.90
36924;DHT22;22841;50.252;18.688;2023-06-24T07:53:20;18.80;99.90
36924;DHT22;22841;50.252;18.688;2023-06-24T07:55:46;18.80;99.90
36924;DHT22;22841;50.252;18.688;2023-06-24T07:58:12;18.90;99.90
36924;DHT22;22841;50.252;18.688;2023-06-24T08:00:38;18.90;99.90
36924;DHT22;22841;50.252;18.688;2023-06-24T08:03:04;19.00;99.90
36924;DHT22;22841;50.252;18.688;2023-06-24T08:05:30;19.00;99.90
36924;DHT22;22841;50.252;18.688;2023-06-24T08:07:57;19.00;99.90
36924;DHT22;22841;50.252;18.688;2023-06-24T08:10:23;19.00;99.90
36924;DHT22;22841;50.252;18.688;2023-06-24T08:12:49;19.10;99.90
36924;DHT22;22841;50.252;18.688;2023-06-24T08:15:15;19.20;99.90
36924;DHT22;22841;50.252;18.688;2023-06-24T08:17:41;19.20;99.90
36924;DHT22;22841;50.252;18.688;2023-06-24T08:20:08;19.20;99.90
36924;DHT22;22841;50.252;18.688;2023-06-24T08:22:34;19.30;99.90
36924;DHT22;22841;50.252;18.688;2023-06-24T08:25:00;19.20;99.90
36924;DHT22;22841;50.252;18.688;2023-06-24T08:27:26;19.20;99.90
36924;DHT22;22841;50.252;18.688;2023-06-24T08:29:52;19.20;99.90
36924;DHT22;22841;50.252;18.688;2023-06-24T08:32:18;19.20;99.90
36924;DHT22;22841;50.252;18.688;2023-06-24T08:34:44;19.10;99.90
36924;DHT22;22841;50.252;18.688;2023-06-24T08:37:11;19.10;99.90
36924;DHT22;22841;50.252;18.688;2023-06-24T08:39:37;19.10;99.90
36924;DHT22;22841;50.252;18.688;2023-06-24T08:42:04;19.10;99.90
36924;DHT22;22841;50.252;18.688;2023-06-24T08:44:31;19.10;99.90
36924;DHT22;22841;50.252;18.688;2023-06-24T08:46:57;19.10;99.90
36924;DHT22;22841;50.252;18.688;2023-06-24T08:49:28;19.10;99.90
36924;DHT22;22841;50.252;18.688;2023-06-24T08:52:15;19.20;99.90
36924;DHT22;22841;50.252;18.688;2023-06-24T08:54:46;19.50;99.90
36924;DHT22;22841;50.252;18.688;2023-06-24T08:57:12;19.50;99.90
36924;DHT22;22841;50.252;18.688;2023-06-24T08:59:42;19.60;99.90
36924;DHT22;22841;50.252;18.688;2023-06-24T09:02:08;19.60;99.90
36924;DHT22;22841;50.252;18.688;2023-06-24T09:04:35;19.60;99.90
36924;DHT22;22841;50.252;18.688;2023-06-24T09:07:02;19.60;99.90
36924;DHT22;22841;50.252;18.688;2023-06-24T09:09:29;19.50;99.90
36924;DHT22;22841;50.252;18.688;2023-06-24T09:14:23;19.00;99.90
36924;DHT22;22841;50.252;18.688;2023-06-24T09:16:54;18.90;99.90
36924;DHT22;22841;50.252;18.688;2023-06-24T09:19:25;18.80;99.90
36924;DHT22;22841;50.252;18.688;2023-06-24T09:21:56;18.80;99.90
36924;DHT22;22841;50.252;18.688;2023-06-24T09:24:27;18.90;99.90
36924;DHT22;22841;50.252;18.688;2023-06-24T09:26:56;18.80;99.90
36924;DHT22;22841;50.252;18.688;2023-06-24T09:29:29;18.80;99.90
36924;DHT22;22841;50.252;18.688;2023-06-24T09:31:55;18.70;99.90
36924;DHT22;22841;50.252;18.688;2023-06-24T09:34:23;18.50;99.90
36924;DHT22;22841;50.252;18.688;2023-06-24T09:36:56;18.50;99.90
36924;DHT22;22841;50.252;18.688;2023-06-24T09:39:23;18.50;99.90
36924;DHT22;22841;50.252;18.688;2023-06-24T09:41:57;18.60;99.90
36924;DHT22;22841;50.252;18.688;2023-06-24T09:44:23;18.60;99.90
36924;DHT22;22841;50.252;18.688;2023-06-24T09:46:50;18.60;99.90
36924;DHT22;22841;50.252;18.688;2023-06-24T09:49:16;18.70;99.90
36924;DHT22;22841;50.252;18.688;2023-06-24T09:51:46;18.70;99.90
36924;DHT22;22841;50.252;18.688;2023-06-24T09:54:14;18.70;99.90
36924;DHT22;22841;50.252;18.688;2023-06-24T09:57:01;18.80;99.90
36924;DHT22;22841;50.252;18.688;2023-06-24T09:59:30;19.00;99.90
36924;DHT22;22841;50.252;18.688;2023-06-24T10:01:57;19.00;99.90
36924;DHT22;22841;50.252;18.688;2023-06-24T10:04:23;19.10;99.90
36924;DHT22;22841;50.252;18.688;2023-06-24T10:06:51;19.10;99.90
36924;DHT22;22841;50.252;18.688;2023-06-24T10:09:17;19.00;99.90
36924;DHT22;22841;50.252;18.688;2023-06-24T10:11:46;19.00;99.90
36924;DHT22;22841;50.252;18.688;2023-06-24T10:14:12;18.90;99.90
36924;DHT22;22841;50.252;18.688;2023-06-24T10:16:40;18.90;99.90
36924;DHT22;22841;50.252;18.688;2023-06-24T10:19:07;19.00;99.90
36924;DHT22;22841;50.252;18.688;2023-06-24T10:21:53;19.00;99.90
36924;DHT22;22841;50.252;18.688;2023-06-24T10:24:34;19.00;99.90
36924;DHT22;22841;50.252;18.688;2023-06-24T10:29:36;18.80;99.90
36924;DHT22;22841;50.252;18.688;2023-06-24T10:32:07;18.80;99.90
36924;DHT22;22841;50.252;18.688;2023-06-24T10:37:23;18.80;99.90
36924;DHT22;22841;50.252;18.688;2023-06-24T10:39:57;18.70;99.90
36924;DHT22;22841;50.252;18.688;2023-06-24T10:47:43;18.80;99.90
36924;DHT22;22841;50.252;18.688;2023-06-24T10:50:11;18.80;99.90
36924;DHT22;22841;50.252;18.688;2023-06-24T10:52:39;18.80;99.90
36924;DHT22;22841;50.252;18.688;2023-06-24T10:55:06;18.80;99.90
36924;DHT22;22841;50.252;18.688;2023-06-24T10:57:33;18.60;99.90
36924;DHT22;22841;50.252;18.688;2023-06-24T11:00:01;18.60;99.90
36924;DHT22;22841;50.252;18.688;2023-06-24T11:02:27;18.50;99.90
36924;DHT22;22841;50.252;18.688;2023-06-24T11:05:01;18.50;99.90
36924;DHT22;22841;50.252;18.688;2023-06-24T11:07:30;18.50;99.90
36924;DHT22;22841;50.252;18.688;2023-06-24T11:12:37;18.50;99.90
36924;DHT22;22841;50.252;18.688;2023-06-24T11:15:08;18.40;99.90
36924;DHT22;22841;50.252;18.688;2023-06-24T11:17:35;18.40;99.90
36924;DHT22;22841;50.252;18.688;2023-06-24T11:20:05;18.40;99.90
36924;DHT22;22841;50.252;18.688;2023-06-24T11:22:32;18.40;99.90
36924;DHT22;22841;50.252;18.688;2023-06-24T11:24:58;18.40;99.90
36924;DHT22;22841;50.252;18.688;2023-06-24T11:27:28;18.50;99.90
36924;DHT22;22841;50.252;18.688;2023-06-24T11:29:57;18.50;99.90
36924;DHT22;22841;50.252;18.688;2023-06-24T11:32:24;18.50;99.90
36924;DHT22;22841;50.252;18.688;2023-06-24T11:34:50;18.50;99.90
36924;DHT22;22841;50.252;18.688;2023-06-24T11:37:18;18.60;99.90
36924;DHT22;22841;50.252;18.688;2023-06-24T11:39:45;18.50;99.90
36924;DHT22;22841;50.252;18.688;2023-06-24T11:42:11;18.60;99.90
36924;DHT22;22841;50.252;18.688;2023-06-24T11:44:41;18.60;99.90
36924;DHT22;22841;50.252;18.688;2023-06-24T11:47:11;18.60;99.90
36924;DHT22;22841;50.252;18.688;2023-06-24T11:49:55;18.60;99.90
36924;DHT22;22841;50.252;18.688;2023-06-24T11:52:43;18.60;99.90
36924;DHT22;22841;50.252;18.688;2023-06-24T11:55:20;18.50;99.90
36924;DHT22;22841;50.252;18.688;2023-06-24T11:57:51;18.60;99.90
36924;DHT22;22841;50.252;18.688;2023-06-24T12:00:32;18.70;99.90
36924;DHT22;22841;50.252;18.688;2023-06-24T12:03:06;18.80;99.90
36924;DHT22;22841;50.252;18.688;2023-06-24T12:05:34;18.80;99.90
36924;DHT22;22841;50.252;18.688;2023-06-24T12:08:05;18.80;99.90
36924;DHT22;22841;50.252;18.688;2023-06-24T12:10:32;18.80;99.90
36924;DHT22;22841;50.252;18.688;2023-06-24T12:13:00;18.70;99.90
36924;DHT22;22841;50.252;18.688;2023-06-24T12:15:27;18.70;99.90
36924;DHT22;22841;50.252;18.688;2023-06-24T12:17:54;18.80;99.90
36924;DHT22;22841;50.252;18.688;2023-06-24T12:20:20;18.80;99.90
36924;DHT22;22841;50.252;18.688;2023-06-24T12:22:47;18.90;99.90
36924;DHT22;22841;50.252;18.688;2023-06-24T12:25:15;19.00;99.90
36924;DHT22;22841;50.252;18.688;2023-06-24T12:27:42;19.10;99.90
36924;DHT22;22841;50.252;18.688;2023-06-24T12:30:09;19.10;99.90
36924;DHT22;22841;50.252;18.688;2023-06-24T12:32:36;19.10;99.90
36924;DHT22;22841;50.252;18.688;2023-06-24T12:35:02;19.20;99.90
36924;DHT22;22841;50.252;18.688;2023-06-24T12:37:33;19.10;99.90
36924;DHT22;22841;50.252;18.688;2023-06-24T12:40:00;19.10;99.90
36924;DHT22;22841;50.252;18.688;2023-06-24T12:42:27;19.10;99.90
36924;DHT22;22841;50.252;18.688;2023-06-24T12:44:53;19.10;99.90
36924;DHT22;22841;50.252;18.688;2023-06-24T12:47:20;19.10;99.90
36924;DHT22;22841;50.252;18.688;2023-06-24T12:49:46;19.00;99.90
36924;DHT22;22841;50.252;18.688;2023-06-24T12:52:14;19.00;99.90
36924;DHT22;22841;50.252;18.688;2023-06-24T12:54:40;18.90;99.90
36924;DHT22;22841;50.252;18.688;2023-06-24T12:57:06;18.80;99.90
36924;DHT22;22841;50.252;18.688;2023-06-24T12:59:33;18.70;99.90
36924;DHT22;22841;50.252;18.688;2023-06-24T13:01:59;18.70;99.90
36924;DHT22;22841;50.252;18.688;2023-06-24T13:04:26;18.70;99.90
36924;DHT22;22841;50.252;18.688;2023-06-24T13:06:53;18.70;99.90
36924;DHT22;22841;50.252;18.688;2023-06-24T13:09:19;18.70;99.90
36924;DHT22;22841;50.252;18.688;2023-06-24T13:11:45;18.70;99.90
36924;DHT22;22841;50.252;18.688;2023-06-24T13:14:12;18.60;99.90
36924;DHT22;22841;50.252;18.688;2023-06-24T13:16:39;18.50;99.90
36924;DHT22;22841;50.252;18.688;2023-06-24T13:19:05;18.50;99.90
36924;DHT22;22841;50.252;18.688;2023-06-24T13:21:31;18.50;99.90
36924;DHT22;22841;50.252;18.688;2023-06-24T13:23:58;18.50;99.90
36924;DHT22;22841;50.252;18.688;2023-06-24T13:26:24;18.40;99.90
36924;DHT22;22841;50.252;18.688;2023-06-24T13:28:50;18.40;99.90
36924;DHT22;22841;50.252;18.688;2023-06-24T13:31:16;18.40;99.90
36924;DHT22;22841;50.252;18.688;2023-06-24T13:33:42;18.50;99.90
36924;DHT22;22841;50.252;18.688;2023-06-24T13:36:25;18.50;99.90
36924;DHT22;22841;50.252;18.688;2023-06-24T13:38:53;18.60;99.90
36924;DHT22;22841;50.252;18.688;2023-06-24T13:41:19;18.50;99.90
36924;DHT22;22841;50.252;18.688;2023-06-24T13:43:45;18.50;99.90
36924;DHT22;22841;50.252;18.688;2023-06-24T13:46:11;18.50;99.90
36924;DHT22;22841;50.252;18.688;2023-06-24T13:48:37;18.40;99.90
36924;DHT22;22841;50.252;18.688;2023-06-24T13:51:04;18.50;99.90
36924;DHT22;22841;50.252;18.688;2023-06-24T13:53:30;18.50;99.90
36924;DHT22;22841;50.252;18.688;2023-06-24T13:55:56;18.50;99.90
36924;DHT22;22841;50.252;18.688;2023-06-24T13:58:22;18.40;99.90
36924;DHT22;22841;50.252;18.688;2023-06-24T14:00:48;18.40;99.90
36924;DHT22;22841;50.252;18.688;2023-06-24T14:03:14;18.40;99.90
36924;DHT22;22841;50.252;18.688;2023-06-24T14:05:40;18.40;99.90
36924;DHT22;22841;50.252;18.688;2023-06-24T14:08:06;18.50;99.90
36924;DHT22;22841;50.252;18.688;2023-06-24T14:10:32;18.60;99.90
36924;DHT22;22841;50.252;18.688;2023-06-24T14:12:58;18.70;99.90
36924;DHT22;22841;50.252;18.688;2023-06-24T14:15:24;18.70;99.90
36924;DHT22;22841;50.252;18.688;2023-06-24T14:17:51;18.70;99.90
36924;DHT22;22841;50.252;18.688;2023-06-24T14:20:17;18.70;99.90
36924;DHT22;22841;50.252;18.688;2023-06-24T14:22:43;18.80;99.90
36924;DHT22;22841;50.252;18.688;2023-06-24T14:25:10;18.80;99.90
36924;DHT22;22841;50.252;18.688;2023-06-24T14:27:36;18.80;99.90
36924;DHT22;22841;50.252;18.688;2023-06-24T14:30:04;18.80;99.90
36924;DHT22;22841;50.252;18.688;2023-06-24T14:32:30;18.80;99.90
36924;DHT22;22841;50.252;18.688;2023-06-24T14:34:56;18.80;99.90
36924;DHT22;22841;50.252;18.688;2023-06-24T14:37:22;18.80;99.90
36924;DHT22;22841;50.252;18.688;2023-06-24T14:39:49;18.80;99.90
36924;DHT22;22841;50.252;18.688;2023-06-24T14:42:15;18.80;99.90
36924;DHT22;22841;50.252;18.688;2023-06-24T14:44:41;18.70;99.90
36924;DHT22;22841;50.252;18.688;2023-06-24T14:47:07;18.60;99.90
36924;DHT22;22841;50.252;18.688;2023-06-24T14:49:33;18.60;99.90
36924;DHT22;22841;50.252;18.688;2023-06-24T14:51:59;18.50;99.90
36924;DHT22;22841;50.252;18.688;2023-06-24T14:54:25;18.50;99.90
36924;DHT22;22841;50.252;18.688;2023-06-24T14:56:51;18.40;99.90
36924;DHT22;22841;50.252;18.688;2023-06-24T14:59:17;18.40;99.90
36924;DHT22;22841;50.252;18.688;2023-06-24T15:01:43;18.40;99.90
36924;DHT22;22841;50.252;18.688;2023-06-24T15:04:09;18.40;99.90
36924;DHT22;22841;50.252;18.688;2023-06-24T15:06:35;18.40;99.90
36924;DHT22;22841;50.252;18.688;2023-06-24T15:09:02;18.40;99.90
36924;DHT22;22841;50.252;18.688;2023-06-24T15:11:28;18.30;99.90
36924;DHT22;22841;50.252;18.688;2023-06-24T15:13:54;18.30;99.90
36924;DHT22;22841;50.252;18.688;2023-06-24T15:16:20;18.30;99.90
36924;DHT22;22841;50.252;18.688;2023-06-24T15:18:47;18.30;99.90
36924;DHT22;22841;50.252;18.688;2023-06-24T15:21:14;18.30;99.90
36924;DHT22;22841;50.252;18.688;2023-06-24T15:23:40;18.20;99.90
36924;DHT22;22841;50.252;18.688;2023-06-24T15:26:06;18.20;99.90
36924;DHT22;22841;50.252;18.688;2023-06-24T15:28:32;18.20;99.90
36924;DHT22;22841;50.252;18.688;2023-06-24T15:31:02;18.20;99.90
36924;DHT22;22841;50.252;18.688;2023-06-24T15:33:28;18.20;99.90
36924;DHT22;22841;50.252;18.688;2023-06-24T15:35:54;18.20;99.90
36924;DHT22;22841;50.252;18.688;2023-06-24T15:38:21;18.20;99.90
36924;DHT22;22841;50.252;18.688;2023-06-24T15:40:47;18.20;99.90
36924;DHT22;22841;50.252;18.688;2023-06-24T15:43:13;18.20;99.90